Time;durP1;ratioP1;P1;durP2;ratioP2;P2;SDS_P1;SDS_P2;PMS_P1;PMS_P2;Temp;Humidity;BMP_temperature;BMP_pressure;BME280_temperature;BME280_humidity;BME280_pressure;Samples;Min_cycle;Max_cycle;Signal;HPM_P1;HPM_P2
2022/01/02 00:01:37;;;;;;;1999.90;999.90;;;7.80;99.90;;;;;;5013825;28;20439;-72
2022/01/02 00:04:05;;;;;;;1999.90;999.90;;;7.90;99.90;;;;;;5012701;28;20468;-72
2022/01/02 00:06:34;;;;;;;1999.90;999.90;;;7.80;99.90;;;;;;5013904;28;20452;-72
2022/01/02 00:09:05;;;;;;;1999.90;999.90;;;7.80;99.90;;;;;;5013929;28;20454;-71
2022/01/02 00:11:33;;;;;;;1999.90;999.90;;;7.80;99.90;;;;;;5013529;28;20941;-72
2022/01/02 00:14:07;;;;;;;1999.90;999.90;;;7.80;99.90;;;;;;5013233;28;20487;-72
2022/01/02 00:16:36;;;;;;;1999.90;999.90;;;7.90;99.90;;;;;;5013522;28;20455;-72
2022/01/02 00:19:16;;;;;;;1999.90;999.90;;;7.90;99.90;;;;;;5013642;28;20474;-72
2022/01/02 00:21:46;;;;;;;1999.90;999.90;;;7.80;99.90;;;;;;5013255;28;20501;-72
2022/01/02 00:24:17;;;;;;;1999.90;999.90;;;7.80;99.90;;;;;;5013158;28;21000;-72
2022/01/02 00:26:45;;;;;;;1999.90;999.90;;;7.80;99.90;;;;;;5013582;28;20432;-70
2022/01/02 00:29:14;;;;;;;1999.90;999.90;;;7.70;99.90;;;;;;5013101;28;20456;-72
2022/01/02 00:31:41;;;;;;;1999.90;999.90;;;7.70;99.90;;;;;;5012842;28;20990;-70
2022/01/02 00:34:08;;;;;;;1999.90;999.90;;;7.60;99.90;;;;;;5012614;28;20484;-72
2022/01/02 00:36:36;;;;;;;1999.90;999.90;;;7.60;99.90;;;;;;5013275;28;20933;-72
2022/01/02 00:39:04;;;;;;;1999.90;999.90;;;7.70;99.90;;;;;;5013619;28;20510;-72
2022/01/02 00:41:35;;;;;;;1999.90;999.90;;;7.50;99.90;;;;;;5015359;28;20451;-72
2022/01/02 00:44:06;;;;;;;1999.90;999.90;;;7.50;99.90;;;;;;5012976;28;20988;-71
2022/01/02 00:46:44;;;;;;;1999.90;999.90;;;7.70;99.90;;;;;;5013490;28;20483;-72
2022/01/02 00:49:12;;;;;;;1999.90;999.90;;;7.50;99.90;;;;;;5012986;28;20498;-72
2022/01/02 00:51:47;;;;;;;1999.90;999.90;;;7.50;99.90;;;;;;5012720;28;20941;-71
2022/01/02 00:54:16;;;;;;;1999.90;999.90;;;7.50;99.90;;;;;;5014442;28;20483;-71
2022/01/02 00:56:46;;;;;;;1999.90;999.90;;;7.50;99.90;;;;;;5013155;28;20945;-73
2022/01/02 00:59:26;;;;;;;1999.90;999.90;;;7.50;99.90;;;;;;5013409;28;20432;-72
2022/01/02 01:02:02;;;;;;;1999.90;999.90;;;7.50;99.90;;;;;;5012784;28;20839;-73
2022/01/02 01:04:31;;;;;;;1999.90;999.90;;;7.60;99.90;;;;;;5012212;28;20479;-72
2022/01/02 01:07:02;;;;;;;1999.90;999.90;;;7.60;99.90;;;;;;5013005;28;20444;-71
2022/01/02 01:09:29;;;;;;;1999.90;999.90;;;7.70;99.90;;;;;;5013012;28;20464;-71
2022/01/02 01:11:58;;;;;;;1999.90;999.90;;;7.70;99.90;;;;;;5012847;28;20451;-71
2022/01/02 01:14:25;;;;;;;1999.90;999.90;;;7.70;99.90;;;;;;5012067;28;20542;-72
2022/01/02 01:16:54;;;;;;;1999.90;999.90;;;7.70;99.90;;;;;;5012755;28;21002;-72
2022/01/02 01:19:21;;;;;;;1999.90;999.90;;;7.80;99.90;;;;;;5013225;28;20514;-71
2022/01/02 01:21:49;;;;;;;1999.90;999.90;;;7.70;99.90;;;;;;5012640;28;20470;-72
2022/01/02 01:24:15;;;;;;;1999.90;999.90;;;7.80;99.90;;;;;;5012787;28;20468;-72
2022/01/02 01:26:43;;;;;;;1999.90;999.90;;;7.70;99.90;;;;;;5012024;28;20451;-72
2022/01/02 01:29:10;;;;;;;1999.90;999.90;;;7.70;99.90;;;;;;5012328;28;20451;-72
2022/01/02 01:31:36;;;;;;;1999.90;999.90;;;7.80;99.90;;;;;;5012386;28;20452;-72
2022/01/02 01:34:04;;;;;;;1999.90;999.90;;;7.80;99.90;;;;;;5011947;28;20487;-72
2022/01/02 01:36:31;;;;;;;1999.90;999.90;;;7.80;99.90;;;;;;5012249;28;20448;-72
2022/01/02 01:38:57;;;;;;;1999.90;999.90;;;7.80;99.90;;;;;;5012042;28;20456;-71
2022/01/02 01:41:29;;;;;;;1999.90;999.90;;;7.80;99.90;;;;;;5011739;28;20514;-73
2022/01/02 01:44:07;;;;;;;1999.90;999.90;;;7.70;99.90;;;;;;5012423;28;20970;-72
2022/01/02 01:46:36;;;;;;;1999.90;999.90;;;7.60;99.90;;;;;;5011831;28;20838;-70
2022/01/02 01:49:14;;;;;;;1999.90;999.90;;;7.70;99.90;;;;;;5012417;28;20444;-71
2022/01/02 01:51:41;;;;;;;1999.90;999.90;;;7.60;99.90;;;;;;5012019;28;20507;-72
2022/01/02 01:54:07;;;;;;;1999.90;999.90;;;7.60;99.90;;;;;;5011844;28;20476;-72
2022/01/02 01:56:34;;;;;;;1999.90;999.90;;;7.50;99.90;;;;;;5012007;28;20488;-72
2022/01/02 01:59:01;;;;;;;1999.90;999.90;;;7.50;99.90;;;;;;5012389;28;20830;-72
2022/01/02 02:01:28;;;;;;;1999.90;999.90;;;7.50;99.90;;;;;;5010931;28;20526;-71
2022/01/02 02:03:54;;;;;;;1999.90;999.90;;;7.50;99.90;;;;;;5012022;28;20472;-72
2022/01/02 02:06:22;;;;;;;1999.90;999.90;;;7.50;99.90;;;;;;5011628;28;20448;-72
2022/01/02 02:08:51;;;;;;;1999.90;999.90;;;7.50;99.90;;;;;;5013622;28;20448;-72
2022/01/02 02:11:19;;;;;;;1999.90;999.90;;;7.50;99.90;;;;;;5015325;28;20464;-72
2022/01/02 02:13:46;;;;;;;1999.90;999.90;;;7.60;99.90;;;;;;5015827;28;20488;-71
2022/01/02 02:16:13;;;;;;;1999.90;999.90;;;7.60;99.90;;;;;;5016308;28;20479;-71
2022/01/02 02:18:40;;;;;;;1999.90;999.90;;;7.60;99.90;;;;;;5016822;28;20518;-71
2022/01/02 02:21:08;;;;;;;1999.90;999.90;;;7.70;99.90;;;;;;5016761;28;21015;-71
2022/01/02 02:23:35;;;;;;;1999.90;999.90;;;7.60;99.90;;;;;;5017604;28;20467;-71
2022/01/02 02:26:01;;;;;;;1999.90;999.90;;;7.70;99.90;;;;;;5016461;28;20452;-72
2022/01/02 02:28:28;;;;;;;1999.90;999.90;;;7.80;99.90;;;;;;5015735;28;20599;-72
2022/01/02 02:30:56;;;;;;;1999.90;999.90;;;7.80;99.90;;;;;;5015184;28;20521;-72
2022/01/02 02:33:23;;;;;;;1999.90;999.90;;;7.90;99.90;;;;;;5015735;28;20518;-72
2022/01/02 02:35:51;;;;;;;1999.90;999.90;;;8.00;99.90;;;;;;5015279;28;20480;-72
2022/01/02 02:38:20;;;;;;;1999.90;999.90;;;8.20;99.90;;;;;;5015772;28;21015;-72
2022/01/02 02:40:47;;;;;;;1999.90;999.90;;;8.40;99.90;;;;;;5015155;28;20482;-72
2022/01/02 02:43:25;;;;;;;1999.90;999.90;;;8.80;99.90;;;;;;4996074;28;20531;-72
2022/01/02 02:51:28;;;;;;;1999.90;999.90;;;9.20;99.90;;;;;;5015180;28;20447;-69
2022/01/02 02:53:56;;;;;;;1999.90;999.90;;;9.20;99.90;;;;;;5004484;28;20480;-70
2022/01/02 02:56:25;;;;;;;1999.90;999.90;;;9.20;99.90;;;;;;5015557;28;21172;-70
2022/01/02 02:58:55;;;;;;;1999.90;999.90;;;9.20;99.90;;;;;;5015384;28;20559;-70
2022/01/02 03:01:24;;;;;;;1999.90;999.90;;;9.20;99.90;;;;;;5015241;28;20531;-70
2022/01/02 03:03:51;;;;;;;1999.90;999.90;;;9.20;99.90;;;;;;5014824;28;20475;-70
2022/01/02 03:06:19;;;;;;;1999.90;999.90;;;9.10;99.90;;;;;;5015381;28;20443;-70
2022/01/02 03:08:46;;;;;;;1999.90;999.90;;;9.20;99.90;;;;;;5015029;28;20448;-70
2022/01/02 03:11:18;;;;;;;1999.90;999.90;;;9.10;99.90;;;;;;5015112;28;20452;-70
2022/01/02 03:13:46;;;;;;;1999.90;999.90;;;9.10;99.90;;;;;;5014659;28;20475;-70
2022/01/02 03:16:13;;;;;;;1999.90;999.90;;;9.20;99.90;;;;;;5015387;28;20534;-70
2022/01/02 03:18:40;;;;;;;1999.90;999.90;;;9.40;99.90;;;;;;5014616;28;20452;-70
2022/01/02 03:21:07;;;;;;;1999.90;999.90;;;9.60;99.90;;;;;;5013539;28;20455;-70
2022/01/02 03:23:34;;;;;;;1999.90;999.90;;;10.10;99.90;;;;;;5014855;28;20980;-70
2022/01/02 03:26:01;;;;;;;1999.90;999.90;;;11.00;99.90;;;;;;5014842;28;20869;-69
2022/01/02 03:28:29;;;;;;;1999.90;999.90;;;11.10;99.90;;;;;;5015113;28;20948;-72
2022/01/02 03:30:56;;;;;;;1999.90;999.90;;;11.40;99.90;;;;;;5014278;28;20502;-71
2022/01/02 03:33:23;;;;;;;1999.90;999.90;;;11.40;99.90;;;;;;5014845;28;20538;-71
2022/01/02 03:35:50;;;;;;;1999.90;999.90;;;11.30;99.90;;;;;;5014873;28;21011;-72
2022/01/02 03:38:17;;;;;;;1999.90;999.90;;;11.40;99.90;;;;;;5014548;28;20510;-72
2022/01/02 03:40:44;;;;;;;1999.90;999.90;;;11.60;99.90;;;;;;5014101;28;20448;-73
2022/01/02 03:43:10;;;;;;;1999.90;999.90;;;11.80;99.90;;;;;;5014584;28;20873;-72
2022/01/02 03:45:38;;;;;;;1999.90;999.90;;;12.00;99.90;;;;;;5014245;28;20474;-73
2022/01/02 03:48:05;;;;;;;1999.90;999.90;;;12.20;99.90;;;;;;5014131;28;20571;-72
2022/01/02 03:50:32;;;;;;;1999.90;999.90;;;12.40;99.90;;;;;;5014337;28;20494;-72
2022/01/02 03:52:58;;;;;;;1999.90;999.90;;;12.50;99.90;;;;;;5014876;28;20445;-73
2022/01/02 03:55:25;;;;;;;1999.90;999.90;;;12.50;99.90;;;;;;5014120;28;20535;-72
2022/01/02 03:57:52;;;;;;;1999.90;999.90;;;12.70;99.90;;;;;;5014174;28;20447;-72
2022/01/02 04:00:19;;;;;;;1999.90;999.90;;;12.70;99.90;;;;;;5013938;28;20498;-72
2022/01/02 04:02:48;;;;;;;1999.90;999.90;;;12.70;99.90;;;;;;5013736;28;20520;-72
2022/01/02 04:05:16;;;;;;;1999.90;999.90;;;12.70;99.90;;;;;;5014675;28;20468;-72
2022/01/02 04:07:44;;;;;;;1999.90;999.90;;;12.80;99.90;;;;;;5014205;28;20448;-72
2022/01/02 04:10:14;;;;;;;1999.90;999.90;;;12.80;99.90;;;;;;5014177;28;20456;-71
2022/01/02 04:12:42;;;;;;;1999.90;999.90;;;12.80;99.90;;;;;;5014322;28;20464;-72
2022/01/02 04:15:10;;;;;;;1999.90;999.90;;;12.70;99.90;;;;;;5013771;28;20491;-72
2022/01/02 04:17:38;;;;;;;1999.90;999.90;;;12.90;99.90;;;;;;5013786;28;20447;-72
2022/01/02 04:20:08;;;;;;;1999.90;999.90;;;13.00;99.90;;;;;;5013100;28;20452;-72
2022/01/02 04:22:35;;;;;;;1999.90;999.90;;;13.10;99.90;;;;;;5014347;28;20444;-71
2022/01/02 04:25:01;;;;;;;1999.90;999.90;;;13.00;99.90;;;;;;5014208;28;20465;-73
2022/01/02 04:27:28;;;;;;;1999.90;999.90;;;13.00;99.90;;;;;;5014294;28;20444;-71
2022/01/02 04:29:55;;;;;;;1999.90;999.90;;;13.10;99.90;;;;;;5013619;28;20995;-73
2022/01/02 04:32:22;;;;;;;1999.90;999.90;;;13.20;99.90;;;;;;5013917;28;20460;-73
2022/01/02 04:34:49;;;;;;;1999.90;999.90;;;13.20;99.90;;;;;;5013442;28;21042;-71
2022/01/02 04:37:17;;;;;;;1999.90;999.90;;;13.20;99.90;;;;;;5013293;28;20459;-72
2022/01/02 04:39:44;;;;;;;1999.90;999.90;;;13.20;99.90;;;;;;5013240;28;20448;-72
2022/01/02 04:42:10;;;;;;;1999.90;999.90;;;13.20;99.90;;;;;;5013130;28;20460;-74
2022/01/02 04:44:37;;;;;;;1999.90;999.90;;;13.30;99.90;;;;;;5013556;28;20498;-72
2022/01/02 04:47:04;;;;;;;1999.90;999.90;;;13.30;99.90;;;;;;5013321;28;20452;-73
2022/01/02 04:49:31;;;;;;;1999.90;999.90;;;13.30;99.90;;;;;;5013852;28;20517;-73
2022/01/02 04:51:58;;;;;;;1999.90;999.90;;;13.40;99.90;;;;;;5013246;28;20452;-72
2022/01/02 04:54:26;;;;;;;1999.90;999.90;;;13.40;99.90;;;;;;5013650;28;20468;-72
2022/01/02 04:56:53;;;;;;;1999.90;999.90;;;13.40;99.90;;;;;;5012952;28;20480;-72
2022/01/02 04:59:19;;;;;;;1999.90;999.90;;;13.40;99.90;;;;;;5013236;28;20448;-72
2022/01/02 05:01:46;;;;;;;1999.90;999.90;;;13.50;99.90;;;;;;5013629;28;20972;-72
2022/01/02 05:04:13;;;;;;;1999.90;999.90;;;13.50;99.90;;;;;;5012844;28;20542;-72
2022/01/02 05:06:39;;;;;;;1999.90;999.90;;;13.50;99.90;;;;;;5012274;28;20451;-72
2022/01/02 05:09:06;;;;;;;1999.90;999.90;;;13.40;99.90;;;;;;5013086;28;20462;-72
2022/01/02 05:11:34;;;;;;;1999.90;999.90;;;13.40;99.90;;;;;;5012360;28;20456;-74
2022/01/02 05:14:01;;;;;;;1999.90;999.90;;;13.30;99.90;;;;;;5012504;28;20831;-72
2022/01/02 05:16:28;;;;;;;1999.90;999.90;;;13.30;99.90;;;;;;5012507;28;20480;-73
2022/01/02 05:18:54;;;;;;;1999.90;999.90;;;13.30;99.90;;;;;;5012831;28;20474;-72
2022/01/02 05:21:21;;;;;;;1999.90;999.90;;;13.20;99.90;;;;;;5012201;28;20456;-72
2022/01/02 05:23:48;;;;;;;1999.90;999.90;;;13.20;99.90;;;;;;5012426;28;20475;-72
2022/01/02 05:26:15;;;;;;;1999.90;999.90;;;13.20;99.90;;;;;;5012620;28;20450;-72
2022/01/02 05:28:42;;;;;;;1999.90;999.90;;;13.30;99.90;;;;;;5013136;28;20475;-72
2022/01/02 05:31:09;;;;;;;1999.90;999.90;;;13.30;99.90;;;;;;5011633;28;20448;-72
2022/01/02 05:33:36;;;;;;;1999.90;999.90;;;13.30;99.90;;;;;;5012754;28;20530;-72
2022/01/02 05:36:03;;;;;;;1999.90;999.90;;;13.30;99.90;;;;;;5012274;28;20515;-72
2022/01/02 05:38:29;;;;;;;1999.90;999.90;;;13.40;99.90;;;;;;5012718;28;20499;-73
2022/01/02 05:40:56;;;;;;;1999.90;999.90;;;13.40;99.90;;;;;;5012172;28;20452;-72
2022/01/02 05:43:23;;;;;;;1999.90;999.90;;;13.40;99.90;;;;;;5011558;28;20472;-72
2022/01/02 05:45:51;;;;;;;1999.90;999.90;;;13.50;99.90;;;;;;5012383;28;20452;-73
2022/01/02 05:48:18;;;;;;;1999.90;999.90;;;13.40;99.90;;;;;;5012272;28;20456;-72
2022/01/02 05:50:45;;;;;;;1999.90;999.90;;;13.40;99.90;;;;;;5011599;28;20448;-72
2022/01/02 05:53:12;;;;;;;1999.90;999.90;;;13.30;99.90;;;;;;5012388;28;20861;-71
2022/01/02 05:55:38;;;;;;;1999.90;999.90;;;13.40;99.90;;;;;;5011925;28;21060;-74
2022/01/02 05:58:05;;;;;;;1999.90;999.90;;;13.40;99.90;;;;;;5012437;28;20937;-72
2022/01/02 06:00:33;;;;;;;1999.90;999.90;;;13.30;99.90;;;;;;5011808;28;20452;-72
2022/01/02 06:03:01;;;;;;;1999.90;999.90;;;13.30;99.90;;;;;;5011427;28;20560;-72
2022/01/02 06:05:27;;;;;;;1999.90;999.90;;;13.30;99.90;;;;;;5012241;28;20478;-73
2022/01/02 06:07:54;;;;;;;1999.90;999.90;;;13.50;99.90;;;;;;5012656;28;20456;-72
2022/01/02 06:10:20;;;;;;;1999.90;999.90;;;13.60;99.90;;;;;;5011748;28;20448;-72
2022/01/02 06:12:47;;;;;;;1999.90;999.90;;;13.60;99.90;;;;;;5012301;28;20456;-72
2022/01/02 06:15:14;;;;;;;1999.90;999.90;;;13.60;99.90;;;;;;5012173;28;20522;-72
2022/01/02 06:17:40;;;;;;;1999.90;999.90;;;13.50;99.90;;;;;;5011438;28;20452;-72
2022/01/02 06:20:09;;;;;;;1999.90;999.90;;;13.50;99.90;;;;;;5011717;28;20835;-72
2022/01/02 06:22:35;;;;;;;1999.90;999.90;;;13.50;99.90;;;;;;5012232;28;20510;-71
2022/01/02 06:25:02;;;;;;;1999.90;999.90;;;13.40;99.90;;;;;;5012280;28;20468;-72
2022/01/02 06:27:29;;;;;;;1999.90;999.90;;;13.50;99.90;;;;;;5012934;28;20444;-71
2022/01/02 06:29:55;;;;;;;1999.90;999.90;;;13.40;99.90;;;;;;5012150;28;20949;-72
2022/01/02 06:32:22;;;;;;;1999.90;999.90;;;13.40;99.90;;;;;;5012943;28;20452;-72
2022/01/02 06:34:49;;;;;;;1999.90;999.90;;;13.40;99.90;;;;;;5012274;28;20468;-71
2022/01/02 06:37:17;;;;;;;1999.90;999.90;;;13.30;99.90;;;;;;5012677;28;20488;-72
2022/01/02 06:39:43;;;;;;;1999.90;999.90;;;13.30;99.90;;;;;;5012002;28;20452;-72
2022/01/02 06:42:10;;;;;;;1999.90;999.90;;;13.30;99.90;;;;;;5012201;28;20506;-73
2022/01/02 06:44:37;;;;;;;1999.90;999.90;;;13.30;99.90;;;;;;5012548;28;20507;-71
2022/01/02 06:47:04;;;;;;;1999.90;999.90;;;13.30;99.90;;;;;;5012367;28;20444;-71
2022/01/02 06:49:30;;;;;;;1999.90;999.90;;;13.20;99.90;;;;;;5012278;28;20518;-72
2022/01/02 06:51:57;;;;;;;1999.90;999.90;;;13.20;99.90;;;;;;5012165;28;20448;-73
2022/01/02 06:54:25;;;;;;;1999.90;999.90;;;13.10;99.90;;;;;;5012277;28;20472;-71
2022/01/02 06:56:52;;;;;;;1999.90;999.90;;;13.10;99.90;;;;;;5016039;28;20537;-72
2022/01/02 06:59:18;;;;;;;1999.90;999.90;;;13.20;99.90;;;;;;5016210;28;20455;-71
2022/01/02 07:01:45;;;;;;;1999.90;999.90;;;13.20;99.90;;;;;;5015472;28;20455;-72
2022/01/02 07:04:12;;;;;;;1999.90;999.90;;;13.20;99.90;;;;;;5015514;28;20538;-73
2022/01/02 07:06:38;;;;;;;1999.90;999.90;;;13.30;99.90;;;;;;5015827;28;21003;-72
2022/01/02 07:09:06;;;;;;;1999.90;999.90;;;13.30;99.90;;;;;;5015780;28;20460;-72
2022/01/02 07:11:34;;;;;;;1999.90;999.90;;;13.30;99.90;;;;;;5015439;28;20444;-72
2022/01/02 07:14:01;;;;;;;1999.90;999.90;;;13.40;99.90;;;;;;5014887;28;20476;-72
2022/01/02 07:16:27;;;;;;;1999.90;999.90;;;13.40;99.90;;;;;;5015247;28;20479;-72
2022/01/02 07:18:54;;;;;;;1999.90;999.90;;;13.40;99.90;;;;;;5015553;28;20506;-72
2022/01/02 07:21:21;;;;;;;1999.90;999.90;;;13.30;99.90;;;;;;5015704;28;20452;-72
2022/01/02 07:23:48;;;;;;;1999.90;999.90;;;13.40;99.90;;;;;;5015585;28;20476;-74
2022/01/02 07:26:15;;;;;;;1999.90;999.90;;;13.40;99.90;;;;;;5015441;28;20951;-72
2022/01/02 07:28:43;;;;;;;1999.90;999.90;;;13.40;99.90;;;;;;5015048;28;21058;-72
2022/01/02 07:31:10;;;;;;;1999.90;999.90;;;13.40;99.90;;;;;;5015059;28;20503;-72
2022/01/02 07:33:36;;;;;;;1999.90;999.90;;;13.40;99.90;;;;;;5015944;28;20468;-73
2022/01/02 07:36:03;;;;;;;1999.90;999.90;;;13.40;99.90;;;;;;5015320;28;20487;-72
2022/01/02 07:38:30;;;;;;;1999.90;999.90;;;13.40;99.90;;;;;;5015281;28;20456;-72
2022/01/02 07:40:57;;;;;;;1999.90;999.90;;;13.40;99.90;;;;;;5014954;28;20506;-74
2022/01/02 07:43:23;;;;;;;1999.90;999.90;;;13.40;99.90;;;;;;5014622;28;20627;-71
2022/01/02 07:45:51;;;;;;;1999.90;999.90;;;13.40;99.90;;;;;;5014768;28;20452;-71
2022/01/02 07:48:18;;;;;;;1999.90;999.90;;;13.50;99.90;;;;;;5014868;28;20877;-72
2022/01/02 07:50:44;;;;;;;1999.90;999.90;;;13.60;99.90;;;;;;5014536;28;20813;-72
2022/01/02 07:53:11;;;;;;;1999.90;999.90;;;13.60;99.90;;;;;;5015530;28;20452;-72
2022/01/02 07:55:38;;;;;;;1999.90;999.90;;;13.60;99.90;;;;;;5015190;28;20452;-74
2022/01/02 07:58:04;;;;;;;1999.90;999.90;;;13.60;99.90;;;;;;5014985;28;20534;-72
2022/01/02 08:00:31;;;;;;;1999.90;999.90;;;13.60;99.90;;;;;;5013255;28;20452;-72
2022/01/02 08:02:59;;;;;;;1999.90;999.90;;;13.60;99.90;;;;;;5014711;28;20448;-71
2022/01/02 08:05:26;;;;;;;1999.90;999.90;;;13.60;99.90;;;;;;5014249;28;20499;-71
2022/01/02 08:07:52;;;;;;;1999.90;999.90;;;13.60;99.90;;;;;;5014225;28;20968;-71
2022/01/02 08:10:19;;;;;;;1999.90;999.90;;;13.70;99.90;;;;;;5014621;28;20456;-71
2022/01/02 08:12:45;;;;;;;1999.90;999.90;;;13.70;99.90;;;;;;5010927;28;20476;-72
2022/01/02 08:15:12;;;;;;;1999.90;999.90;;;13.70;99.90;;;;;;5012056;28;20514;-73
2022/01/02 08:17:39;;;;;;;1999.90;999.90;;;13.70;99.90;;;;;;5012421;28;20484;-71
2022/01/02 08:20:08;;;;;;;1999.90;999.90;;;13.70;99.90;;;;;;5008659;28;20457;-72
2022/01/02 08:22:34;;;;;;;1999.90;999.90;;;13.70;99.90;;;;;;5012544;28;20932;-72
2022/01/02 08:25:02;;;;;;;1999.90;999.90;;;13.80;99.90;;;;;;5013194;28;20503;-72
2022/01/02 08:27:29;;;;;;;1999.90;999.90;;;13.80;99.90;;;;;;5014110;28;20635;-73
2022/01/02 08:29:55;;;;;;;1999.90;999.90;;;13.80;99.90;;;;;;5016025;28;20464;-72
2022/01/02 08:32:22;;;;;;;1999.90;999.90;;;13.80;99.90;;;;;;5034014;28;20501;-72
2022/01/02 08:34:49;;;;;;;1999.90;999.90;;;13.90;99.90;;;;;;5012151;28;20492;-71
2022/01/02 08:37:17;;;;;;;1999.90;999.90;;;13.90;99.90;;;;;;5012342;28;20534;-72
2022/01/02 08:39:45;;;;;;;1999.90;999.90;;;13.90;99.90;;;;;;5012571;28;20476;-72
2022/01/02 08:42:13;;;;;;;1999.90;999.90;;;13.80;99.90;;;;;;5009068;28;20998;-73
2022/01/02 08:44:41;;;;;;;1999.90;999.90;;;13.80;99.90;;;;;;5011510;28;20512;-72
2022/01/02 08:47:09;;;;;;;1999.90;999.90;;;13.80;99.90;;;;;;5011278;28;20515;-73
2022/01/02 08:49:35;;;;;;;1999.90;999.90;;;13.90;99.90;;;;;;5011856;28;20498;-72
2022/01/02 08:52:02;;;;;;;1999.90;999.90;;;13.90;99.90;;;;;;5004314;28;20518;-74
2022/01/02 08:54:30;;;;;;;1999.90;999.90;;;13.90;99.90;;;;;;5005242;28;20488;-72
2022/01/02 08:56:57;;;;;;;1999.90;999.90;;;13.90;99.90;;;;;;5008167;28;20488;-73
2022/01/02 08:59:27;;;;;;;1999.90;999.90;;;13.90;99.90;;;;;;5013107;28;20576;-71
2022/01/02 09:01:54;;;;;;;1999.90;999.90;;;14.00;99.90;;;;;;5011334;28;20463;-72
2022/01/02 09:04:21;;;;;;;1999.90;999.90;;;14.00;99.90;;;;;;5012518;28;20480;-74
2022/01/02 09:06:48;;;;;;;1999.90;999.90;;;13.90;99.90;;;;;;5010171;28;20514;-73
2022/01/02 09:09:15;;;;;;;1999.90;999.90;;;13.90;99.90;;;;;;5011044;28;20460;-74
2022/01/02 09:11:43;;;;;;;1999.90;999.90;;;13.90;99.90;;;;;;5010964;28;20465;-72
2022/01/02 09:14:09;;;;;;;1999.90;999.90;;;13.90;99.90;;;;;;5011514;28;20491;-72
2022/01/02 09:16:36;;;;;;;1999.90;999.90;;;13.90;99.90;;;;;;5009628;28;22292;-73
2022/01/02 09:19:03;;;;;;;1999.90;999.90;;;13.90;99.90;;;;;;5010857;28;20464;-73
2022/01/02 09:21:29;;;;;;;1999.90;999.90;;;13.90;99.90;;;;;;5010537;28;20510;-73
2022/01/02 09:23:56;;;;;;;1999.90;999.90;;;13.90;99.90;;;;;;5010548;28;20476;-72
2022/01/02 09:26:23;;;;;;;1999.90;999.90;;;14.10;99.90;;;;;;5010864;28;20877;-73
2022/01/02 09:28:51;;;;;;;1999.90;999.90;;;14.10;99.90;;;;;;5002505;28;21271;-73
2022/01/02 09:31:17;;;;;;;1999.90;999.90;;;14.10;99.90;;;;;;5010327;28;20494;-73
2022/01/02 09:33:44;;;;;;;1999.90;999.90;;;14.10;99.90;;;;;;5012105;28;20522;-73
2022/01/02 09:36:11;;;;;;;1999.90;999.90;;;14.20;99.90;;;;;;5009152;28;20565;-72
2022/01/02 09:38:37;;;;;;;1999.90;999.90;;;14.30;99.90;;;;;;5009926;28;20542;-72
2022/01/02 09:41:06;;;;;;;1999.90;999.90;;;14.30;99.90;;;;;;5010682;28;20806;-73
2022/01/02 09:43:33;;;;;;;1999.90;999.90;;;14.30;99.90;;;;;;5010602;28;20468;-73
2022/01/02 09:46:03;;;;;;;1999.90;999.90;;;14.40;99.90;;;;;;5012146;28;20459;-73
2022/01/02 09:48:30;;;;;;;1999.90;999.90;;;14.30;99.90;;;;;;5012391;28;20472;-73
2022/01/02 09:50:57;;;;;;;1999.90;999.90;;;14.30;99.90;;;;;;5011786;28;20482;-75
2022/01/02 09:53:24;;;;;;;1999.90;999.90;;;14.30;99.90;;;;;;5012189;28;20531;-73
2022/01/02 09:55:51;;;;;;;1999.90;999.90;;;14.30;99.90;;;;;;5011915;28;20510;-73
2022/01/02 09:58:18;;;;;;;1999.90;999.90;;;14.00;99.90;;;;;;5010875;28;21082;-73
2022/01/02 10:00:46;;;;;;;1999.90;999.90;;;14.00;99.90;;;;;;5009064;28;21131;-73
2022/01/02 10:03:16;;;;;;;1999.90;999.90;;;13.90;99.90;;;;;;5009963;28;20452;-74
2022/01/02 10:05:53;;;;;;;1999.90;999.90;;;13.90;99.90;;;;;;5009939;28;20484;-73
2022/01/02 10:08:22;;;;;;;1999.90;999.90;;;13.80;99.90;;;;;;5009181;28;20466;-73
2022/01/02 10:10:57;;;;;;;1999.90;999.90;;;13.90;99.90;;;;;;5007666;28;20459;-73
2022/01/02 10:13:41;;;;;;;1999.90;999.90;;;13.80;99.90;;;;;;5010457;28;20586;-74
2022/01/02 10:16:23;;;;;;;1999.90;999.90;;;13.70;99.90;;;;;;5011904;28;20456;-73
2022/01/02 10:18:52;;;;;;;1999.90;999.90;;;13.90;99.90;;;;;;5012187;28;20476;-73
2022/01/02 10:21:29;;;;;;;1999.90;999.90;;;13.90;99.90;;;;;;5011122;28;20452;-73
2022/01/02 10:24:10;;;;;;;1999.90;999.90;;;13.90;99.90;;;;;;5011865;28;20464;-73
2022/01/02 10:26:37;;;;;;;1999.90;999.90;;;14.00;99.90;;;;;;5011536;28;20939;-71
2022/01/02 10:29:11;;;;;;;1999.90;999.90;;;14.10;99.90;;;;;;5012138;28;20452;-73
2022/01/02 10:31:37;;;;;;;1999.90;999.90;;;14.20;99.90;;;;;;5015363;28;20445;-71
2022/01/02 10:34:06;;;;;;;1999.90;999.90;;;14.20;99.90;;;;;;5015758;28;20467;-73
2022/01/02 10:36:34;;;;;;;1999.90;999.90;;;14.20;99.90;;;;;;5014796;28;20522;-73
2022/01/02 10:39:11;;;;;;;1999.90;999.90;;;14.30;99.90;;;;;;5015848;28;20541;-72
2022/01/02 10:41:40;;;;;;;1999.90;999.90;;;14.40;99.90;;;;;;5015613;28;20459;-72
2022/01/02 10:44:29;;;;;;;1999.90;999.90;;;14.40;99.90;;;;;;5015987;28;20467;-72
2022/01/02 10:47:21;;;;;;;1999.90;999.90;;;14.30;99.90;;;;;;5015969;28;20479;-72
2022/01/02 10:49:55;;;;;;;1999.90;999.90;;;14.10;99.90;;;;;;5001138;28;20857;-74
2022/01/02 10:52:25;;;;;;;1999.90;999.90;;;14.20;99.90;;;;;;5014620;28;20447;-71
2022/01/02 10:54:52;;;;;;;1999.90;999.90;;;14.10;99.90;;;;;;5015949;28;20517;-73
2022/01/02 10:57:19;;;;;;;1999.90;999.90;;;14.10;99.90;;;;;;5004497;28;20491;-70
2022/01/02 10:59:47;;;;;;;1999.90;999.90;;;14.10;99.90;;;;;;5015217;28;20498;-74
2022/01/02 11:02:15;;;;;;;1999.90;999.90;;;14.20;99.90;;;;;;5016068;28;20448;-73
2022/01/02 11:04:46;;;;;;;1999.90;999.90;;;14.20;99.90;;;;;;5015295;28;20468;-72
2022/01/02 11:07:20;;;;;;;1999.90;999.90;;;14.20;99.90;;;;;;5015349;28;20458;-74
2022/01/02 11:09:48;;;;;;;1999.90;999.90;;;14.30;99.90;;;;;;5017636;28;20447;-74
2022/01/02 11:12:14;;;;;;;1999.90;999.90;;;14.40;99.90;;;;;;5014842;28;20456;-74
2022/01/02 11:14:42;;;;;;;1999.90;999.90;;;14.20;99.90;;;;;;5014772;28;20476;-73
2022/01/02 11:17:09;;;;;;;1999.90;999.90;;;14.30;99.90;;;;;;5014907;28;20896;-73
2022/01/02 11:19:35;;;;;;;1999.90;999.90;;;14.60;99.90;;;;;;5015158;28;20448;-73
2022/01/02 11:22:04;;;;;;;1999.90;999.90;;;14.90;99.90;;;;;;5014851;28;20452;-72
2022/01/02 11:24:38;;;;;;;1999.90;999.90;;;15.00;99.90;;;;;;5014954;28;20472;-73
2022/01/02 11:27:12;;;;;;;1999.90;999.90;;;15.20;99.90;;;;;;5014813;28;20498;-73
2022/01/02 11:29:39;;;;;;;1999.90;999.90;;;15.30;99.90;;;;;;5014644;28;20510;-74
2022/01/02 11:32:21;;;;;;;1999.90;999.90;;;15.40;99.90;;;;;;5014119;28;20448;-74
2022/01/02 11:34:48;;;;;;;1999.90;999.90;;;15.70;99.90;;;;;;5014726;28;20468;-74
2022/01/02 11:37:24;;;;;;;1999.90;999.90;;;15.90;99.90;;;;;;5014545;28;20538;-73
2022/01/02 11:39:57;;;;;;;1999.90;999.90;;;16.10;99.90;;;;;;5014556;28;20517;-75
2022/01/02 11:42:44;;;;;;;1999.90;999.90;;;16.10;99.90;;;;;;5012706;28;20456;-74
2022/01/02 11:45:27;;;;;;;1999.90;999.90;;;16.20;99.90;;;;;;5014009;28;20989;-74
2022/01/02 11:47:53;;;;;;;1999.90;999.90;;;16.00;99.90;;;;;;5013116;28;20444;-76
2022/01/02 11:50:53;;;;;;;1999.90;999.90;;;16.10;99.90;;;;;;5014058;28;20506;-74
2022/01/02 11:53:23;;;;;;;1999.90;999.90;;;16.00;99.90;;;;;;4953266;28;20467;-76
2022/01/02 11:55:53;;;;;;;1999.90;999.90;;;15.90;99.90;;;;;;4953406;29;20546;-75
2022/01/02 11:58:50;;;;;;;1999.90;999.90;;;15.90;99.90;;;;;;4981589;28;21031;-74
2022/01/02 12:01:46;;;;;;;1999.90;999.90;;;15.90;99.90;;;;;;5013813;28;20448;-74
2022/01/02 12:04:12;;;;;;;1999.90;999.90;;;15.80;99.90;;;;;;5013543;28;20840;-76
2022/01/02 12:06:42;;;;;;;1999.90;999.90;;;15.80;99.90;;;;;;5013894;28;20859;-74
2022/01/02 12:09:34;;;;;;;1999.90;999.90;;;15.60;99.90;;;;;;5014174;28;20452;-76
2022/01/02 12:12:05;;;;;;;1999.90;999.90;;;15.60;99.90;;;;;;5012928;28;20495;-75
2022/01/02 12:14:32;;;;;;;1999.90;999.90;;;15.40;99.90;;;;;;5014056;28;20468;-74